Time;durP1;ratioP1;P1;durP2;ratioP2;P2;SDS_P1;SDS_P2;PMS_P1;PMS_P2;Temp;Humidity;BMP_temperature;BMP_pressure;BME280_temperature;BME280_humidity;BME280_pressure;Samples;Min_cycle;Max_cycle;Signal;HPM_P1;HPM_P2
2023/01/04 00:01:40;;;;;;;1999.90;999.90;;;12.60;99.90;;;;;;4943859;28;20051;-77
2023/01/04 00:04:11;;;;;;;1999.90;999.90;;;12.60;99.90;;;;;;4943829;28;20046;-76
2023/01/04 00:06:37;;;;;;;1999.90;999.90;;;12.60;99.90;;;;;;4942105;28;20051;-76
2023/01/04 00:09:04;;;;;;;1864.63;771.03;;;12.70;99.90;;;;;;4925144;28;20066;-77
2023/01/04 00:11:43;;;;;;;1999.90;999.90;;;12.20;99.90;;;;;;4943328;28;20043;-75
2023/01/04 00:14:17;;;;;;;1999.90;999.90;;;14.70;99.90;;;;;;4911186;28;20122;-80
2023/01/04 00:16:44;;;;;;;1999.90;999.90;;;11.00;99.90;;;;;;4942171;28;20067;-76
2023/01/04 00:19:11;;;;;;;1999.90;999.90;;;12.80;99.90;;;;;;4956505;28;20058;-77
2023/01/04 00:21:37;;;;;;;1999.90;999.90;;;12.70;99.90;;;;;;4928099;28;20062;-78
2023/01/04 00:24:04;;;;;;;1999.90;999.90;;;12.80;99.90;;;;;;4926159;28;20094;-77
2023/01/04 00:26:33;;;;;;;1999.90;999.90;;;12.60;99.90;;;;;;4928847;29;20059;-77
2023/01/04 00:29:06;;;;;;;1999.90;999.90;;;12.60;99.90;;;;;;4934287;28;20052;-76
2023/01/04 00:31:34;;;;;;;1999.90;999.90;;;12.60;99.90;;;;;;4945898;28;20043;-77
2023/01/04 00:34:01;;;;;;;;;;;12.60;99.90;;;;;;4931460;28;20486;-82
2023/01/04 00:36:40;;;;;;;1999.90;613.78;;;12.60;1.00;;;;;;4944666;28;19929;-78
2023/01/04 00:39:17;;;;;;;1789.40;118.88;;;12.70;99.90;;;;;;4930467;28;20524;-81
2023/01/04 00:42:03;;;;;;;1999.90;347.70;;;;;;;;;;4945834;28;20059;-81
2023/01/04 00:44:33;;;;;;;1999.90;789.03;;;12.30;99.90;;;;;;4946396;28;21277;-83
2023/01/04 00:47:02;;;;;;;1999.90;787.75;;;12.60;1.00;;;;;;4913495;28;20051;-82
2023/01/04 00:49:30;;;;;;;1836.00;75.53;;;12.30;1.00;;;;;;4946505;28;20077;-79
2023/01/04 00:51:56;;;;;;;1999.90;807.05;;;12.10;99.90;;;;;;4947210;28;20035;-80
2023/01/04 00:54:23;;;;;;;1999.90;256.13;;;12.30;1.00;;;;;;4927538;28;20043;-81
2023/01/04 00:56:49;;;;;;;1999.90;118.97;;;12.30;99.90;;;;;;4931749;28;20051;-79
2023/01/04 00:59:17;;;;;;;1999.90;799.22;;;12.40;1.00;;;;;;4929588;28;20055;-79
2023/01/04 01:01:43;;;;;;;;;;;12.40;35.10;;;;;;4945892;28;20057;-79
2023/01/04 01:04:12;;;;;;;1999.90;999.90;;;12.20;99.90;;;;;;4931361;28;19930;-79
2023/01/04 01:06:47;;;;;;;1999.90;842.83;;;12.40;99.90;;;;;;4960522;28;20047;-80
2023/01/04 01:09:21;;;;;;;1999.90;815.55;;;12.60;11.20;;;;;;4945416;28;20077;-79
2023/01/04 01:11:47;;;;;;;1999.90;426.60;;;13.00;1.00;;;;;;4929249;28;20043;-82
2023/01/04 01:14:17;;;;;;;1999.90;800.60;;;12.30;1.00;;;;;;4946980;28;20183;-80
2023/01/04 01:16:43;;;;;;;1999.90;999.90;;;12.30;99.90;;;;;;4947189;28;20424;-78
2023/01/04 01:19:08;;;;;;;1999.90;337.15;;;12.70;99.90;;;;;;4945084;28;20093;-82
2023/01/04 01:21:34;;;;;;;1999.90;999.90;;;12.30;99.90;;;;;;4912192;28;20043;-80
2023/01/04 01:24:00;;;;;;;1999.90;601.10;;;12.40;99.90;;;;;;4929206;28;21278;-84
2023/01/04 01:26:26;;;;;;;1999.90;999.90;;;12.40;99.90;;;;;;4929459;28;20158;-81
2023/01/04 01:28:52;;;;;;;1999.90;471.40;;;12.60;1.00;;;;;;4947507;28;20066;-85
2023/01/04 01:31:20;;;;;;;1999.90;148.13;;;12.70;99.90;;;;;;4943992;28;20043;-84
2023/01/04 01:33:47;;;;;;;1999.90;603.97;;;12.30;99.90;;;;;;4944043;28;20051;-85
2023/01/04 01:36:14;;;;;;;1999.90;523.85;;;12.00;99.90;;;;;;4940763;28;20130;-87
2023/01/04 01:38:40;;;;;;;1999.90;241.60;;;13.30;99.90;;;;;;4946351;28;20062;-82
2023/01/04 01:41:08;;;;;;;1999.90;835.70;;;12.00;99.90;;;;;;4960409;28;20054;-81
2023/01/04 01:43:59;;;;;;;1999.90;425.67;;;13.40;99.90;;;;;;4944159;28;20289;-81
2023/01/04 01:46:49;;;;;;;1999.90;999.90;;;12.10;99.90;;;;;;4945200;28;20051;-80
2023/01/04 01:49:24;;;;;;;1999.90;851.63;;;13.40;99.90;;;;;;4946636;28;20137;-83
2023/01/04 01:51:55;;;;;;;1999.90;271.00;;;13.30;99.90;;;;;;4943664;28;20472;-78
2023/01/04 01:54:28;;;;;;;1999.90;834.60;;;12.20;99.90;;;;;;4944371;28;20074;-77
2023/01/04 01:56:58;;;;;;;1999.90;788.70;;;12.80;99.90;;;;;;4960781;28;20106;-77
2023/01/04 01:59:26;;;;;;;1999.90;560.92;;;13.00;99.90;;;;;;4945977;28;20086;-79
2023/01/04 02:01:52;;;;;;;1999.90;999.90;;;;;;;;;;4948912;28;20050;-81
2023/01/04 02:04:18;;;;;;;1999.90;999.90;;;12.70;99.90;;;;;;4960819;28;20516;-77
2023/01/04 02:06:48;;;;;;;1999.90;659.88;;;13.30;99.90;;;;;;4946018;28;20047;-83
2023/01/04 02:09:15;;;;;;;1416.18;515.25;;;13.20;99.90;;;;;;4944770;28;20070;-86
2023/01/04 02:11:41;;;;;;;1999.90;999.90;;;13.30;99.90;;;;;;4946841;28;20101;-84
2023/01/04 02:14:26;;;;;;;1999.90;561.83;;;13.30;99.90;;;;;;4946453;28;20047;-75
2023/01/04 02:16:56;;;;;;;1999.90;999.90;;;12.70;99.90;;;;;;4947249;28;20492;-74
2023/01/04 02:19:30;;;;;;;1999.90;999.90;;;13.30;99.90;;;;;;4942976;28;20051;-76
2023/01/04 02:21:58;;;;;;;1999.90;999.90;;;13.40;99.90;;;;;;4944725;28;20050;-74
2023/01/04 02:24:35;;;;;;;1999.90;999.90;;;12.80;99.90;;;;;;4943811;28;20047;-75
2023/01/04 02:27:20;;;;;;;1999.90;811.65;;;12.90;99.90;;;;;;4945241;28;20056;-83
2023/01/04 02:29:46;;;;;;;1999.90;780.72;;;13.10;99.90;;;;;;4942533;28;20051;-75
2023/01/04 02:32:32;;;;;;;1999.90;999.90;;;13.50;99.90;;;;;;4945687;28;20062;-77
2023/01/04 02:35:21;;;;;;;1106.90;515.65;;;13.40;99.90;;;;;;4945761;28;20059;-74
2023/01/04 02:38:06;;;;;;;;;;;13.00;99.90;;;;;;4946090;28;20082;-75
2023/01/04 02:40:44;;;;;;;1999.90;999.90;;;13.40;99.90;;;;;;4942868;28;19922;-84
2023/01/04 02:46:18;;;;;;;1999.90;999.90;;;13.20;99.90;;;;;;4942905;28;20154;-75
2023/01/04 02:51:36;;;;;;;1999.90;999.90;;;13.50;99.90;;;;;;4944048;28;21540;-75
2023/01/04 02:54:13;;;;;;;1999.90;999.90;;;13.90;99.90;;;;;;4943471;28;20078;-78
2023/01/04 02:57:01;;;;;;;1999.90;595.33;;;13.70;99.90;;;;;;4944037;28;20212;-77
2023/01/04 02:59:54;;;;;;;1999.90;999.90;;;13.20;99.90;;;;;;4945243;28;20206;-76
2023/01/04 03:08:39;;;;;;;1999.90;999.90;;;13.20;99.90;;;;;;4944338;28;20051;-75
2023/01/04 03:14:06;;;;;;;207.25;19.23;;;13.30;99.90;;;;;;4946783;28;20070;-78
2023/01/04 03:16:34;;;;;;;1704.88;214.38;;;13.60;99.90;;;;;;4944862;28;20688;-78
2023/01/04 03:19:03;;;;;;;1999.90;999.90;;;13.40;99.90;;;;;;4946149;28;20051;-83
2023/01/04 03:21:30;;;;;;;1804.32;791.88;;;13.30;99.90;;;;;;4941747;28;20481;-80
2023/01/04 03:36:05;;;;;;;1999.90;790.75;;;13.50;99.90;;;;;;4943249;28;20521;-76
2023/01/04 03:50:56;;;;;;;1999.90;999.90;;;14.10;99.90;;;;;;4943250;28;20076;-75
2023/01/04 03:53:22;;;;;;;1999.90;410.90;;;14.20;99.90;;;;;;4939954;28;20047;-77
2023/01/04 03:55:50;;;;;;;1999.90;999.90;;;14.40;99.90;;;;;;4941617;28;20512;-81
2023/01/04 03:58:17;;;;;;;1939.85;340.42;;;14.30;99.90;;;;;;4944378;28;20452;-85
2023/01/04 04:00:45;;;;;;;1999.90;999.90;;;14.60;99.90;;;;;;4944967;28;20049;-77
2023/01/04 04:03:11;;;;;;;1999.90;734.97;;;13.90;99.90;;;;;;4945806;28;20543;-77
2023/01/04 04:08:25;;;;;;;1999.90;825.95;;;13.90;99.90;;;;;;4944396;28;20055;-85
2023/01/04 04:10:52;;;;;;;1999.90;405.63;;;14.00;99.90;;;;;;4947538;28;20047;-78
2023/01/04 04:13:17;;;;;;;1999.90;310.75;;;14.80;99.90;;;;;;4945715;28;20055;-77
2023/01/04 04:15:43;;;;;;;1999.90;806.80;;;14.70;99.90;;;;;;4943300;28;20047;-77
2023/01/04 04:18:09;;;;;;;1999.90;759.83;;;14.80;99.90;;;;;;4943141;28;20126;-80
2023/01/04 04:20:35;;;;;;;1999.90;571.70;;;14.80;99.90;;;;;;4946332;28;20040;-81
2023/01/04 04:23:01;;;;;;;1999.90;636.22;;;14.60;99.90;;;;;;4944399;28;20056;-77
2023/01/04 04:25:27;;;;;;;1999.90;620.67;;;15.00;99.90;;;;;;4946619;28;20047;-85
2023/01/04 04:27:52;;;;;;;1999.90;420.42;;;15.00;99.90;;;;;;4946034;28;20051;-81
2023/01/04 04:30:18;;;;;;;1999.90;422.42;;;14.20;99.90;;;;;;4944993;28;20102;-79
2023/01/04 04:32:44;;;;;;;1999.90;409.33;;;14.40;99.90;;;;;;4943273;28;20043;-76
2023/01/04 04:35:10;;;;;;;1999.90;769.85;;;15.10;99.90;;;;;;4944784;28;20577;-77
2023/01/04 04:37:36;;;;;;;1999.90;844.10;;;14.90;99.90;;;;;;4946831;28;20058;-83
2023/01/04 04:40:03;;;;;;;1999.90;895.95;;;14.30;99.90;;;;;;4947262;28;20078;-77
2023/01/04 04:42:29;;;;;;;1999.90;999.90;;;14.90;99.90;;;;;;4947283;28;20051;-87
2023/01/04 04:44:54;;;;;;;1999.90;687.50;;;14.80;99.90;;;;;;4944868;28;20058;-77
2023/01/04 04:47:20;;;;;;;1999.90;630.90;;;14.30;99.90;;;;;;4945790;28;20662;-80
2023/01/04 04:49:46;;;;;;;1999.90;439.90;;;14.30;99.90;;;;;;4948323;28;20050;-76
2023/01/04 04:52:11;;;;;;;1999.90;187.48;;;15.00;99.90;;;;;;4946991;28;20492;-75
2023/01/04 04:54:37;;;;;;;1999.90;796.40;;;14.70;99.90;;;;;;4949196;28;20054;-81
2023/01/04 04:57:03;;;;;;;1999.90;825.53;;;15.10;99.90;;;;;;4945578;28;20075;-84
2023/01/04 04:59:29;;;;;;;1999.90;408.20;;;15.40;99.90;;;;;;4944364;28;20043;-77
2023/01/04 05:01:54;;;;;;;1999.90;469.45;;;15.20;99.90;;;;;;4944364;28;20051;-75
2023/01/04 05:04:20;;;;;;;1999.90;692.83;;;15.20;99.90;;;;;;4943806;28;20055;-78
2023/01/04 05:06:48;;;;;;;1999.90;773.13;;;14.50;99.90;;;;;;4943352;28;20117;-78
2023/01/04 05:09:14;;;;;;;1999.90;666.97;;;15.40;99.90;;;;;;4948792;28;20130;-75
2023/01/04 05:14:24;;;;;;;1999.90;546.10;;;15.00;99.90;;;;;;4945851;28;20055;-75
2023/01/04 05:16:49;;;;;;;1999.90;999.90;;;15.10;99.90;;;;;;4946873;28;20043;-75
2023/01/04 05:19:15;;;;;;;1999.90;725.95;;;15.50;99.90;;;;;;4949551;28;20524;-75
2023/01/04 05:21:41;;;;;;;1999.90;999.90;;;15.30;99.90;;;;;;4947981;28;20043;-76
2023/01/04 05:24:07;;;;;;;1999.90;579.65;;;14.50;99.90;;;;;;4947571;28;20499;-76
2023/01/04 05:26:33;;;;;;;1999.90;731.78;;;15.40;99.90;;;;;;4945912;28;20066;-84
2023/01/04 05:28:59;;;;;;;1999.90;338.90;;;15.60;99.90;;;;;;4947228;28;20055;-85
2023/01/04 05:31:25;;;;;;;1999.90;255.02;;;15.20;99.90;;;;;;4963035;28;20610;-76
2023/01/04 05:33:50;;;;;;;1999.90;917.33;;;15.30;99.90;;;;;;4947292;28;20051;-86
2023/01/04 05:36:16;;;;;;;1999.90;733.28;;;14.60;99.90;;;;;;4945561;28;20072;-77
2023/01/04 05:38:42;;;;;;;1999.90;713.20;;;14.50;99.90;;;;;;4943718;28;20039;-81
2023/01/04 05:42:24;;;;;;;1999.90;999.90;;;15.90;99.90;;;;;;4948501;28;20038;-78
2023/01/04 05:43:53;;;;;;;1999.90;797.22;;;15.90;99.90;;;;;;4943993;28;20047;-80
2023/01/04 05:46:19;;;;;;;1999.90;909.38;;;15.80;99.90;;;;;;4948151;28;20046;-78
2023/01/04 05:48:45;;;;;;;1999.90;823.17;;;15.90;99.90;;;;;;4944493;28;20161;-77
2023/01/04 05:51:11;;;;;;;1999.90;434.60;;;15.50;99.90;;;;;;4945376;28;20047;-82
2023/01/04 05:53:37;;;;;;;1999.90;705.00;;;15.40;99.90;;;;;;4947441;28;20109;-78
2023/01/04 05:56:03;;;;;;;1999.90;888.80;;;14.90;99.90;;;;;;4947017;28;20496;-84
2023/01/04 05:58:28;;;;;;;1999.90;893.78;;;15.60;99.90;;;;;;4947618;28;20524;-80
2023/01/04 06:00:54;;;;;;;1999.90;999.90;;;15.00;99.90;;;;;;4945609;28;20139;-80
2023/01/04 06:03:20;;;;;;;1999.90;708.40;;;15.80;99.90;;;;;;4946590;28;20190;-81
2023/01/04 06:05:50;;;;;;;1999.90;602.40;;;15.20;99.90;;;;;;4930136;28;20134;-80
2023/01/04 06:08:16;;;;;;;1999.90;833.58;;;16.20;99.90;;;;;;4944665;28;20039;-84
2023/01/04 06:10:41;;;;;;;1999.90;562.33;;;16.30;99.90;;;;;;4945673;28;20051;-88
2023/01/04 06:13:07;;;;;;;1999.90;890.15;;;15.50;99.90;;;;;;4942692;28;20137;-82
2023/01/04 06:15:33;;;;;;;1999.90;405.77;;;16.40;99.90;;;;;;4943325;28;20043;-82
2023/01/04 06:17:59;;;;;;;1999.90;991.70;;;16.30;99.90;;;;;;4944477;28;20082;-80
2023/01/04 06:20:24;;;;;;;1999.90;827.38;;;15.60;99.90;;;;;;4943978;28;20031;-87
2023/01/04 06:22:50;;;;;;;1999.90;424.33;;;15.70;99.90;;;;;;4944602;28;20559;-84
2023/01/04 06:25:16;;;;;;;1999.90;678.35;;;16.10;99.90;;;;;;4947150;28;20396;-86
2023/01/04 06:27:42;;;;;;;1999.90;486.85;;;15.70;99.90;;;;;;4945680;28;20051;-85
2023/01/04 06:30:08;;;;;;;1999.90;141.95;;;15.60;99.90;;;;;;4944183;28;20477;-85
2023/01/04 06:32:34;;;;;;;1999.90;316.70;;;16.00;99.90;;;;;;4946186;28;20047;-84
2023/01/04 06:35:00;;;;;;;1999.90;476.65;;;15.60;99.90;;;;;;4945327;28;20539;-82
2023/01/04 06:37:26;;;;;;;1999.90;662.50;;;15.70;99.90;;;;;;4945237;28;20117;-81
2023/01/04 06:39:52;;;;;;;1999.90;811.72;;;16.30;99.90;;;;;;4944200;28;20499;-86
2023/01/04 06:45:03;;;;;;;1966.43;151.23;;;15.70;99.90;;;;;;4943447;28;20063;-86
2023/01/04 06:47:29;;;;;;;1912.18;565.53;;;15.70;99.90;;;;;;4930918;28;20126;-87
2023/01/04 06:49:54;;;;;;;1999.90;688.63;;;16.30;99.90;;;;;;4946009;28;20129;-84
2023/01/04 06:52:20;;;;;;;1999.90;816.72;;;16.30;99.90;;;;;;4914501;28;20435;-87
2023/01/04 06:54:46;;;;;;;1999.90;401.63;;;15.70;99.90;;;;;;4944535;28;20126;-80
2023/01/04 06:57:12;;;;;;;1999.90;999.90;;;16.50;99.90;;;;;;4943884;28;20408;-86
2023/01/04 06:59:37;;;;;;;1999.90;377.70;;;16.10;99.90;;;;;;4956384;28;20471;-89
2023/01/04 07:02:03;;;;;;;1999.90;386.65;;;15.80;99.90;;;;;;4942055;28;20039;-84
2023/01/04 07:04:29;;;;;;;1999.90;532.13;;;16.20;99.90;;;;;;4944499;28;20051;-84
2023/01/04 07:06:56;;;;;;;1999.90;686.90;;;16.40;99.90;;;;;;4941398;28;20606;-83
2023/01/04 07:09:22;;;;;;;1999.90;327.23;;;16.40;99.90;;;;;;4942539;28;20499;-88
2023/01/04 07:11:48;;;;;;;1999.90;679.05;;;16.20;99.90;;;;;;4944882;28;20031;-85
2023/01/04 07:14:13;;;;;;;1999.90;999.90;;;16.40;99.90;;;;;;4929092;28;20039;-84
2023/01/04 07:16:39;;;;;;;1999.90;402.77;;;16.50;99.90;;;;;;4944039;28;21525;-88
2023/01/04 07:19:07;;;;;;;1999.90;999.90;;;16.10;99.90;;;;;;4944152;28;20047;-84
2023/01/04 07:21:33;;;;;;;;;;;16.30;99.90;;;;;;4941541;28;20050;-84
2023/01/04 07:23:58;;;;;;;1999.90;687.50;;;16.00;99.90;;;;;;4930243;29;19919;-86
2023/01/04 07:26:24;;;;;;;1999.90;633.55;;;15.70;99.90;;;;;;4952303;29;20047;-84
2023/01/04 07:31:34;;;;;;;1999.90;826.40;;;16.60;99.90;;;;;;4961806;28;20253;-82
2023/01/04 07:34:00;;;;;;;1999.90;999.90;;;16.10;99.90;;;;;;4970421;28;20121;-83
2023/01/04 07:36:25;;;;;;;1999.90;801.45;;;16.50;99.90;;;;;;4957654;28;20051;-83
2023/01/04 07:38:51;;;;;;;1999.90;999.90;;;16.40;99.90;;;;;;4962652;28;20122;-83
2023/01/04 07:41:17;;;;;;;1999.90;798.75;;;15.80;99.90;;;;;;4956187;28;20519;-84
2023/01/04 07:43:42;;;;;;;1999.90;345.63;;;16.30;99.90;;;;;;4957423;29;20052;-84
2023/01/04 07:46:08;;;;;;;1999.90;687.70;;;16.00;99.90;;;;;;4962901;28;20054;-83
2023/01/04 07:48:34;;;;;;;1999.90;160.75;;;15.80;99.90;;;;;;4963559;28;20047;-83
2023/01/04 07:50:59;;;;;;;1999.90;999.90;;;16.20;99.90;;;;;;4954985;28;20042;-87
2023/01/04 07:53:25;;;;;;;1999.90;469.27;;;16.50;99.90;;;;;;4953868;28;20042;-83
2023/01/04 07:55:58;;;;;;;1999.90;552.60;;;15.80;99.90;;;;;;4955196;29;20059;-88
2023/01/04 07:58:24;;;;;;;1999.90;974.65;;;16.20;99.90;;;;;;4957677;28;20043;-83
2023/01/04 08:00:50;;;;;;;1999.90;268.25;;;15.90;99.90;;;;;;4950935;28;20106;-83
2023/01/04 08:03:16;;;;;;;1999.90;999.90;;;16.80;99.90;;;;;;4955169;28;20083;-84
2023/01/04 08:05:41;;;;;;;1999.90;332.98;;;16.90;99.90;;;;;;4956747;28;20114;-84
2023/01/04 08:08:07;;;;;;;1999.90;715.10;;;15.90;99.90;;;;;;4953206;28;20050;-84
2023/01/04 08:10:33;;;;;;;1999.90;846.65;;;16.40;99.90;;;;;;4965436;28;20054;-85
2023/01/04 08:12:59;;;;;;;1999.90;999.90;;;17.80;99.90;;;;;;4954643;28;20058;-83
2023/01/04 08:15:28;;;;;;;1999.90;613.40;;;16.50;99.90;;;;;;4957193;29;20047;-85
2023/01/04 08:17:55;;;;;;;1999.90;804.22;;;16.60;99.90;;;;;;4961027;28;20488;-87
2023/01/04 08:20:21;;;;;;;1999.90;711.88;;;16.00;99.90;;;;;;4968400;28;20050;-86
2023/01/04 08:22:47;;;;;;;1999.90;999.90;;;16.60;99.90;;;;;;4955278;28;20451;-86
2023/01/04 08:25:13;;;;;;;1999.90;851.67;;;16.00;99.90;;;;;;4953477;28;20069;-86
2023/01/04 08:27:40;;;;;;;1999.90;440.90;;;16.50;99.90;;;;;;4961869;28;20043;-86
2023/01/04 08:30:08;;;;;;;1999.90;503.95;;;16.40;99.90;;;;;;4967008;28;20558;-85
2023/01/04 08:32:33;;;;;;;1999.90;784.67;;;16.50;99.90;;;;;;4950262;28;20054;-84
2023/01/04 08:34:59;;;;;;;1999.90;305.83;;;16.20;99.90;;;;;;4951939;28;20055;-87
2023/01/04 08:37:25;;;;;;;1999.90;683.60;;;16.30;99.90;;;;;;4947642;28;22522;-86
2023/01/04 08:39:51;;;;;;;1999.90;839.53;;;16.60;99.90;;;;;;4957363;28;20054;-85
2023/01/04 08:42:16;;;;;;;1999.90;441.05;;;16.00;99.90;;;;;;4957510;28;20580;-85
2023/01/04 08:44:42;;;;;;;1999.90;355.77;;;16.20;99.90;;;;;;4956750;28;20051;-85
2023/01/04 08:47:08;;;;;;;1999.90;289.30;;;16.50;99.90;;;;;;4940137;29;20058;-85
2023/01/04 08:49:33;;;;;;;1999.90;489.40;;;16.00;99.90;;;;;;4956346;28;20126;-85
2023/01/04 08:51:59;;;;;;;1999.90;543.45;;;16.30;99.90;;;;;;4949989;28;20484;-84
2023/01/04 08:54:25;;;;;;;1999.90;426.13;;;16.40;99.90;;;;;;4965962;28;20043;-85
2023/01/04 08:56:50;;;;;;;1999.90;271.92;;;16.30;99.90;;;;;;4944192;28;20551;-87
2023/01/04 08:59:16;;;;;;;1999.90;506.83;;;16.20;99.90;;;;;;4959033;28;20138;-88
2023/01/04 09:01:42;;;;;;;1999.90;381.08;;;16.50;99.90;;;;;;4953652;28;20063;-87
2023/01/04 09:04:08;;;;;;;1999.90;439.95;;;16.80;99.90;;;;;;4959085;28;20077;-88
2023/01/04 09:06:35;;;;;;;1999.90;446.77;;;16.20;99.90;;;;;;4964519;28;20133;-85
2023/01/04 09:09:01;;;;;;;1999.90;349.15;;;16.40;99.90;;;;;;4954469;28;20083;-88
2023/01/04 09:11:27;;;;;;;1999.90;345.35;;;16.10;99.90;;;;;;4959858;28;20070;-86
2023/01/04 09:13:57;;;;;;;1999.90;582.03;;;16.20;99.90;;;;;;4965316;28;20043;-85
2023/01/04 09:16:23;;;;;;;1999.90;833.10;;;16.70;99.90;;;;;;4950912;28;20054;-86
2023/01/04 09:18:49;;;;;;;1999.90;610.78;;;16.80;99.90;;;;;;4960743;28;20401;-85
2023/01/04 09:21:18;;;;;;;1999.90;201.50;;;16.10;99.90;;;;;;4960294;28;20500;-84
2023/01/04 09:23:44;;;;;;;1999.90;769.45;;;16.20;99.90;;;;;;4955140;28;20404;-86
2023/01/04 09:26:20;;;;;;;1999.90;999.90;;;16.90;99.90;;;;;;4951192;28;20106;-86
2023/01/04 09:28:46;;;;;;;1999.90;556.13;;;16.10;99.90;;;;;;4959277;28;20385;-87
2023/01/04 09:31:14;;;;;;;1999.90;999.90;;;16.50;99.90;;;;;;4936286;29;20047;-87
2023/01/04 09:33:41;;;;;;;1999.90;239.52;;;16.60;99.90;;;;;;4948836;29;20051;-88
2023/01/04 09:36:07;;;;;;;1999.90;194.35;;;16.10;99.90;;;;;;4969975;28;20513;-87
2023/01/04 09:38:34;;;;;;;1671.18;525.30;;;16.30;99.90;;;;;;4974199;28;20051;-88
2023/01/04 09:41:12;;;;;;;1999.90;351.60;;;16.80;99.90;;;;;;4954326;28;20130;-87
2023/01/04 09:43:49;;;;;;;1999.90;567.90;;;16.70;99.90;;;;;;4955158;28;20055;-88
2023/01/04 09:46:31;;;;;;;1999.90;429.65;;;16.50;99.90;;;;;;4955357;28;20051;-88
2023/01/04 09:49:29;;;;;;;1999.90;802.50;;;16.90;99.90;;;;;;4969940;28;20047;-87
2023/01/04 09:52:16;;;;;;;1999.90;874.13;;;16.60;99.90;;;;;;4952899;28;20055;-88
2023/01/04 09:54:49;;;;;;;1999.90;824.15;;;16.90;99.90;;;;;;4952914;28;20238;-87
2023/01/04 09:57:24;;;;;;;1999.90;418.50;;;16.20;99.90;;;;;;4953442;28;20094;-87
2023/01/04 10:00:12;;;;;;;1999.90;810.75;;;17.10;99.90;;;;;;4952587;28;20055;-87
2023/01/04 10:02:51;;;;;;;1999.90;694.58;;;17.10;99.90;;;;;;4953587;29;20485;-86
2023/01/04 10:05:25;;;;;;;1999.90;690.38;;;16.40;99.90;;;;;;4955800;28;20467;-87
2023/01/04 10:07:50;;;;;;;1999.90;999.90;;;16.40;99.90;;;;;;4969087;28;20047;-85
2023/01/04 10:10:20;;;;;;;1999.90;680.33;;;16.20;99.90;;;;;;4950180;28;20058;-85
2023/01/04 10:13:04;;;;;;;1999.90;394.48;;;16.30;99.90;;;;;;4953885;29;20094;-84
2023/01/04 10:16:02;;;;;;;1999.90;831.58;;;16.50;99.90;;;;;;4954465;28;20118;-83
2023/01/04 10:18:52;;;;;;;1999.90;593.55;;;16.50;99.90;;;;;;4911602;28;20690;-85
2023/01/04 10:21:20;;;;;;;;;;;16.60;99.90;;;;;;4951924;29;20055;-83
2023/01/04 10:24:01;;;;;;;1999.90;741.83;;;16.50;99.90;;;;;;4955302;29;19922;-83
2023/01/04 10:26:48;;;;;;;1999.90;363.70;;;17.20;99.90;;;;;;4954194;28;20055;-83
2023/01/04 10:29:17;;;;;;;1999.90;715.75;;;17.40;99.90;;;;;;4953736;28;20053;-83
2023/01/04 10:31:52;;;;;;;1999.90;743.60;;;16.60;99.90;;;;;;4952628;28;20043;-84
2023/01/04 10:34:20;;;;;;;1999.90;697.95;;;16.50;99.90;;;;;;4954311;28;20516;-85
2023/01/04 10:36:48;;;;;;;1999.90;272.75;;;17.20;99.90;;;;;;4954020;28;20063;-83
2023/01/04 10:39:21;;;;;;;1999.90;599.60;;;16.40;99.90;;;;;;4953041;28;20043;-84
2023/01/04 10:41:59;;;;;;;1999.90;999.90;;;16.40;99.90;;;;;;4952419;28;20539;-84
2023/01/04 10:45:02;;;;;;;1999.90;270.30;;;16.40;99.90;;;;;;4954617;28;20054;-83
2023/01/04 10:47:54;;;;;;;1999.90;211.68;;;16.90;99.90;;;;;;4954370;29;20063;-83
2023/01/04 10:50:35;;;;;;;1999.90;387.92;;;16.50;99.90;;;;;;4951966;28;20408;-84
2023/01/04 10:53:13;;;;;;;1999.90;466.20;;;17.30;99.90;;;;;;4952174;28;20048;-82
2023/01/04 10:55:51;;;;;;;1999.90;389.10;;;16.50;99.90;;;;;;4951865;28;20035;-82
2023/01/04 10:58:21;;;;;;;1999.90;963.13;;;17.40;99.90;;;;;;4952453;28;20062;-81
2023/01/04 11:00:53;;;;;;;1999.90;797.92;;;16.50;99.90;;;;;;4949939;28;20081;-82
2023/01/04 11:03:30;;;;;;;1999.90;400.98;;;17.20;99.90;;;;;;4951310;28;20101;-82
2023/01/04 11:06:16;;;;;;;1999.90;987.78;;;17.60;99.90;;;;;;4952924;28;20051;-81
2023/01/04 11:08:49;;;;;;;1999.90;345.88;;;16.50;99.90;;;;;;4947834;28;20078;-83
2023/01/04 11:11:23;;;;;;;1999.90;689.88;;;16.90;99.90;;;;;;4949760;28;20138;-86
2023/01/04 11:13:49;;;;;;;1999.90;819.83;;;17.20;99.90;;;;;;4963603;28;20050;-82
2023/01/04 11:16:15;;;;;;;1999.90;828.30;;;17.70;99.90;;;;;;4970233;28;20054;-83
2023/01/04 11:18:42;;;;;;;1999.90;772.92;;;17.80;99.90;;;;;;4970889;28;20055;-82
2023/01/04 11:21:11;;;;;;;1999.90;353.42;;;16.80;99.90;;;;;;4956667;28;20131;-81
2023/01/04 11:23:37;;;;;;;1999.90;999.90;;;17.10;99.90;;;;;;4959947;28;20054;-81
2023/01/04 11:26:15;;;;;;;1999.90;637.95;;;16.70;99.90;;;;;;4973587;28;20050;-82
2023/01/04 11:29:11;;;;;;;1999.90;405.05;;;16.70;99.90;;;;;;4971621;28;20085;-80
2023/01/04 11:31:48;;;;;;;1999.90;243.98;;;16.90;99.90;;;;;;4952211;28;20047;-82
2023/01/04 11:34:13;;;;;;;1999.90;665.80;;;17.20;99.90;;;;;;4947489;28;20059;-82
2023/01/04 11:36:42;;;;;;;1999.90;546.25;;;17.70;99.90;;;;;;4952905;28;20535;-82
2023/01/04 11:39:20;;;;;;;1999.90;798.50;;;17.20;99.90;;;;;;4969183;28;20055;-82
2023/01/04 11:42:03;;;;;;;1999.90;515.42;;;16.90;99.90;;;;;;4960512;28;20381;-81
2023/01/04 11:44:33;;;;;;;1999.90;286.63;;;16.50;99.90;;;;;;4954939;28;20484;-81
2023/01/04 11:47:19;;;;;;;1974.80;183.13;;;17.60;99.90;;;;;;4972222;28;20058;-80
2023/01/04 11:49:47;;;;;;;1999.90;686.65;;;17.70;99.90;;;;;;4961610;28;20050;-80
2023/01/04 11:52:33;;;;;;;1926.68;146.10;;;16.60;99.90;;;;;;4954000;28;20078;-80
2023/01/04 11:55:32;;;;;;;1999.90;767.88;;;16.80;99.90;;;;;;4960648;28;20523;-82
2023/01/04 11:58:12;;;;;;;1999.90;443.95;;;16.80;99.90;;;;;;4911842;28;20127;-81
2023/01/04 12:00:53;;;;;;;1999.90;999.90;;;16.40;99.90;;;;;;4961549;28;20050;-82
2023/01/04 12:03:39;;;;;;;1980.85;784.63;;;17.80;99.90;;;;;;4952242;28;20058;-86
2023/01/04 12:06:16;;;;;;;1999.90;618.90;;;17.30;99.90;;;;;;4954924;28;20050;-80
2023/01/04 12:08:42;;;;;;;1999.90;727.60;;;16.70;99.90;;;;;;4966023;28;20047;-81
2023/01/04 12:11:32;;;;;;;1922.53;217.80;;;17.10;99.90;;;;;;4955676;28;20110;-81
2023/01/04 12:13:58;;;;;;;1959.75;571.75;;;16.60;99.90;;;;;;4964931;28;20038;-80
2023/01/04 12:16:42;;;;;;;1682.22;575.75;;;16.50;99.90;;;;;;4968755;28;20511;-80
2023/01/04 12:19:16;;;;;;;1996.32;331.80;;;16.60;99.90;;;;;;4948044;28;20135;-87
2023/01/04 12:21:50;;;;;;;1999.90;655.70;;;16.50;99.90;;;;;;4954038;28;20094;-80
2023/01/04 12:24:27;;;;;;;1999.90;999.90;;;16.70;99.90;;;;;;4955467;28;20122;-82
2023/01/04 12:26:53;;;;;;;1999.90;730.58;;;17.90;99.90;;;;;;4953620;28;20055;-80
2023/01/04 12:29:22;;;;;;;1999.90;722.47;;;17.40;99.90;;;;;;4956575;28;20055;-80
2023/01/04 12:31:53;;;;;;;1973.22;783.90;;;16.70;99.90;;;;;;4971699;28;20089;-82
2023/01/04 12:34:22;;;;;;;1999.90;645.50;;;16.70;99.90;;;;;;4968065;28;20045;-84
2023/01/04 12:36:59;;;;;;;1999.90;473.63;;;16.80;99.90;;;;;;4930803;29;20128;-83
2023/01/04 12:39:37;;;;;;;1999.90;999.90;;;17.30;99.90;;;;;;4923560;29;20055;-84
2023/01/04 12:42:06;;;;;;;1999.90;474.08;;;16.50;99.90;;;;;;4935576;29;20572;-84
2023/01/04 12:44:38;;;;;;;1999.90;706.97;;;16.20;99.90;;;;;;4934012;29;20048;-82
2023/01/04 12:50:07;;;;;;;1999.90;460.95;;;17.60;99.90;;;;;;4936621;29;20059;-83
2023/01/04 12:52:32;;;;;;;1549.05;327.23;;;16.30;99.90;;;;;;4934657;29;20052;-83
2023/01/04 12:55:03;;;;;;;1999.90;999.90;;;16.70;99.90;;;;;;4934797;29;20404;-83
2023/01/04 12:57:36;;;;;;;1999.90;674.92;;;17.40;99.90;;;;;;4933672;29;20062;-83
2023/01/04 13:00:13;;;;;;;1999.90;893.05;;;17.70;99.90;;;;;;4933665;29;20145;-83
2023/01/04 13:02:50;;;;;;;1999.90;868.88;;;17.80;99.90;;;;;;4917811;29;20127;-83
2023/01/04 13:05:16;;;;;;;1999.90;720.58;;;16.10;99.90;;;;;;4931679;29;20057;-84
2023/01/04 13:07:50;;;;;;;1895.30;780.95;;;16.90;99.90;;;;;;4936307;29;20043;-83
2023/01/04 13:10:35;;;;;;;1999.90;584.05;;;16.30;99.90;;;;;;4937258;29;20052;-83